createdAt,value
2023-06-15T00:10:47.380Z,28.62
2023-06-15T00:13:15.054Z,28.69
2023-06-15T00:15:42.939Z,28.75
2023-06-15T00:18:10.742Z,28.64
2023-06-15T00:20:38.726Z,29.14
2023-06-15T00:23:06.552Z,28.70
2023-06-15T00:25:34.449Z,28.69
2023-06-15T00:28:03.618Z,29.25
2023-06-15T00:30:31.366Z,28.72
2023-06-15T00:32:59.201Z,28.56
2023-06-15T00:35:27.008Z,29.48
2023-06-15T00:37:54.717Z,28.51
2023-06-15T00:40:22.390Z,28.70
2023-06-15T00:42:50.058Z,28.55
2023-06-15T00:45:19.399Z,28.28
2023-06-15T00:47:47.624Z,28.36
2023-06-15T00:50:19.264Z,28.50
2023-06-15T00:52:47.802Z,28.70
2023-06-15T00:55:16.461Z,28.14
2023-06-15T00:57:46.300Z,28.83
2023-06-15T01:00:15.708Z,28.48
2023-06-15T01:02:45.947Z,28.64
2023-06-15T01:05:14.063Z,28.46
2023-06-15T01:07:47.923Z,28.72
2023-06-15T01:10:15.902Z,28.11
2023-06-15T01:12:45.521Z,28.23
2023-06-15T01:15:13.261Z,28.30
2023-06-15T01:17:46.092Z,28.02
2023-06-15T01:20:16.263Z,27.81
2023-06-15T01:22:46.552Z,28.57
2023-06-15T01:25:18.145Z,28.27
2023-06-15T01:27:50.613Z,28.14
2023-06-15T01:30:18.587Z,28.33
2023-06-15T01:32:46.312Z,27.17
2023-06-15T01:35:14.129Z,27.00
2023-06-15T01:37:41.984Z,28.27
2023-06-15T01:40:10.908Z,27.70
2023-06-15T01:42:38.866Z,27.76
2023-06-15T01:45:08.776Z,27.39
2023-06-15T01:47:36.531Z,27.24
2023-06-15T01:50:04.201Z,27.14
2023-06-15T01:52:31.903Z,27.01
2023-06-15T01:54:59.539Z,27.13
2023-06-15T01:57:37.397Z,27.15
2023-06-15T02:00:06.352Z,27.41
2023-06-15T02:02:43.427Z,27.17
2023-06-15T02:05:11.731Z,27.29
2023-06-15T02:07:39.414Z,26.87
2023-06-15T02:10:07.913Z,26.80
2023-06-15T02:12:35.673Z,26.82
2023-06-15T02:15:05.876Z,26.86
2023-06-15T02:17:39.811Z,26.93
2023-06-15T02:20:09.884Z,27.50
2023-06-15T02:22:37.586Z,27.24
2023-06-15T02:25:06.073Z,26.76
2023-06-15T02:27:34.076Z,26.41
2023-06-15T02:30:02.496Z,26.35
2023-06-15T02:32:35.729Z,26.85
2023-06-15T02:35:06.116Z,26.91
2023-06-15T02:37:35.316Z,26.50
2023-06-15T02:44:17.540Z,27.14
2023-06-15T02:51:01.308Z,26.50
2023-06-15T02:53:31.021Z,26.56
2023-06-15T02:56:00.822Z,26.93
2023-06-15T02:58:33.139Z,26.13
2023-06-15T03:01:13.673Z,26.83
2023-06-15T03:03:47.783Z,26.88
2023-06-15T03:06:16.054Z,26.72
2023-06-15T03:08:46.361Z,27.01
2023-06-15T03:11:27.720Z,27.37
2023-06-15T03:13:55.838Z,26.71
2023-06-15T03:16:26.029Z,27.77
2023-06-15T03:18:54.540Z,27.19
2023-06-15T03:21:24.652Z,27.34
2023-06-15T03:23:55.854Z,27.43
2023-06-15T03:26:24.743Z,26.86
2023-06-15T03:28:53.749Z,27.15
2023-06-15T03:31:23.372Z,27.28
2023-06-15T03:33:51.382Z,27.36
2023-06-15T03:36:21.206Z,26.48
2023-06-15T03:38:49.989Z,27.86
2023-06-15T03:41:19.229Z,27.29
2023-06-15T03:43:47.857Z,27.90
2023-06-15T03:46:15.595Z,27.46
2023-06-15T03:48:43.477Z,27.57
2023-06-15T03:51:11.276Z,27.82
2023-06-15T03:53:43.465Z,26.91
2023-06-15T03:56:11.283Z,27.84
2023-06-15T03:58:40.387Z,27.09
2023-06-15T04:01:09.252Z,26.96
2023-06-15T04:03:37.198Z,27.48
2023-06-15T04:06:06.498Z,28.05
2023-06-15T04:08:34.638Z,27.52
2023-06-15T04:11:02.352Z,27.93
2023-06-15T04:13:30.244Z,27.31
2023-06-15T04:15:59.633Z,26.55
2023-06-15T04:18:27.340Z,26.33
2023-06-15T04:20:55.215Z,25.82
2023-06-15T04:23:23.339Z,27.35
2023-06-15T04:25:51.701Z,27.13
2023-06-15T04:28:19.423Z,26.45
2023-06-15T04:30:51.505Z,26.89
2023-06-15T04:33:20.771Z,27.84
2023-06-15T04:35:49.046Z,27.18
2023-06-15T04:38:18.705Z,26.71
2023-06-15T04:40:50.213Z,27.90
2023-06-15T04:43:19.931Z,28.07
2023-06-15T04:45:47.993Z,26.24
2023-06-15T04:48:21.807Z,25.84
2023-06-15T04:50:50.264Z,27.07
2023-06-15T04:53:18.912Z,27.65
2023-06-15T04:55:47.075Z,27.75
2023-06-15T04:58:15.208Z,28.09
2023-06-15T05:00:43.262Z,28.50
2023-06-15T05:03:12.923Z,26.74
2023-06-15T05:05:42.436Z,28.01
2023-06-15T05:08:10.478Z,28.46
2023-06-15T05:10:46.196Z,28.94
2023-06-15T05:13:17.424Z,28.06
2023-06-15T05:15:45.220Z,28.41
2023-06-15T05:18:14.922Z,28.17
2023-06-15T05:20:44.139Z,28.58
2023-06-15T05:23:12.720Z,29.57
2023-06-15T05:25:41.691Z,29.64
2023-06-15T05:28:09.392Z,28.28
2023-06-15T05:30:39.967Z,29.34
2023-06-15T05:33:08.401Z,29.13
2023-06-15T05:35:38.347Z,29.02
2023-06-15T05:38:07.472Z,28.79
2023-06-15T05:40:39.361Z,28.23
2023-06-15T05:43:07.659Z,28.70
2023-06-15T05:45:40.395Z,28.59
2023-06-15T05:48:09.284Z,28.10
2023-06-15T05:50:38.280Z,29.69
2023-06-15T05:53:08.119Z,30.65
2023-06-15T05:55:36.032Z,31.09
2023-06-15T05:58:04.596Z,27.96
2023-06-15T06:00:33.000Z,28.34
2023-06-15T06:03:02.365Z,30.15
2023-06-15T06:05:44.374Z,29.79
2023-06-15T06:08:13.443Z,29.00
2023-06-15T06:10:41.884Z,28.76
2023-06-15T06:13:29.636Z,30.11
2023-06-15T06:15:57.637Z,28.89
2023-06-15T06:18:26.356Z,30.04
2023-06-15T06:20:54.115Z,30.24
2023-06-15T06:23:23.627Z,30.45
2023-06-15T06:25:51.467Z,29.98
2023-06-15T06:28:20.632Z,30.42
2023-06-15T06:30:48.403Z,30.40
2023-06-15T06:33:16.145Z,29.53
2023-06-15T06:35:43.973Z,30.04
2023-06-15T06:38:11.678Z,28.89
2023-06-15T06:40:40.712Z,28.14
2023-06-15T06:43:08.351Z,30.27
2023-06-15T06:45:36.008Z,29.74
2023-06-15T06:48:03.779Z,29.29
2023-06-15T06:50:31.570Z,30.27
2023-06-15T06:52:59.227Z,30.66
2023-06-15T06:55:26.925Z,30.71
2023-06-15T06:57:55.937Z,31.28
2023-06-15T07:00:23.567Z,29.57
2023-06-15T07:02:51.324Z,30.69
2023-06-15T07:05:19.397Z,29.94
2023-06-15T07:07:47.320Z,30.75
2023-06-15T07:10:15.032Z,30.81
2023-06-15T07:12:42.691Z,31.60
2023-06-15T07:15:12.232Z,30.96
2023-06-15T07:17:40.065Z,30.79
2023-06-15T07:20:08.526Z,31.42
2023-06-15T07:22:36.343Z,31.74
2023-06-15T07:25:04.173Z,30.61
2023-06-15T07:27:31.890Z,32.03
2023-06-15T07:29:59.552Z,31.48
2023-06-15T07:32:28.635Z,32.11
2023-06-15T07:34:56.369Z,33.33
2023-06-15T07:37:24.118Z,32.59
2023-06-15T07:39:51.847Z,32.95
2023-06-15T07:42:19.610Z,33.61
2023-06-15T07:44:47.439Z,32.85
2023-06-15T07:47:15.068Z,33.15
2023-06-15T07:49:46.791Z,32.86
2023-06-15T07:52:14.798Z,33.91
2023-06-15T07:54:43.169Z,32.94
2023-06-15T07:57:11.169Z,32.94
2023-06-15T07:59:38.949Z,31.97
2023-06-15T08:02:07.067Z,33.46
2023-06-15T08:04:34.801Z,32.89
2023-06-15T08:07:05.775Z,33.88
2023-06-15T08:09:33.471Z,33.25
2023-06-15T08:12:02.402Z,33.92
2023-06-15T08:14:30.179Z,32.88
2023-06-15T08:16:57.922Z,32.73
2023-06-15T08:19:25.676Z,31.92
2023-06-15T08:21:53.441Z,31.86
2023-06-15T08:24:22.580Z,31.42
2023-06-15T08:26:50.771Z,32.20
2023-06-15T08:29:24.078Z,32.75
2023-06-15T08:31:52.664Z,31.53
2023-06-15T08:34:20.463Z,33.15
2023-06-15T08:36:48.193Z,33.13
2023-06-15T08:39:15.924Z,33.76
2023-06-15T08:41:45.945Z,34.55
2023-06-15T08:44:13.597Z,34.64
2023-06-15T08:46:43.461Z,34.61
2023-06-15T08:49:11.632Z,33.75
2023-06-15T08:51:40.155Z,34.80
2023-06-15T08:54:09.586Z,33.70
2023-06-15T08:56:39.166Z,32.52
2023-06-15T08:59:08.522Z,33.85
2023-06-15T09:01:40.815Z,33.31
2023-06-15T09:04:08.703Z,35.10
2023-06-15T09:06:36.999Z,34.63
2023-06-15T09:09:05.004Z,33.54
2023-06-15T09:11:34.572Z,34.12
2023-06-15T09:14:02.316Z,34.83
2023-06-15T09:16:31.505Z,34.80
2023-06-15T09:18:59.218Z,34.75
2023-06-15T09:21:27.546Z,33.17
2023-06-15T09:23:55.319Z,34.13
2023-06-15T09:26:23.699Z,34.36
2023-06-15T09:28:53.578Z,36.09
2023-06-15T09:31:31.299Z,34.41
2023-06-15T09:34:03.585Z,36.83
2023-06-15T09:36:34.898Z,36.18
2023-06-15T09:39:02.761Z,36.86
2023-06-15T09:41:30.562Z,37.13
2023-06-15T09:43:58.368Z,38.07
2023-06-15T09:46:29.428Z,37.81
2023-06-15T09:48:58.571Z,37.95
2023-06-15T09:51:31.715Z,36.05
2023-06-15T09:54:00.439Z,35.24
2023-06-15T09:56:31.268Z,35.76
2023-06-15T09:59:03.659Z,35.09
2023-06-15T10:05:20.651Z,33.43
2023-06-15T10:07:50.979Z,32.74
2023-06-15T10:10:19.128Z,32.16
2023-06-15T10:12:52.555Z,31.92
2023-06-15T10:15:21.647Z,33.55
2023-06-15T10:17:49.970Z,33.27
2023-06-15T10:20:19.578Z,34.78
2023-06-15T10:22:51.799Z,35.04
2023-06-15T10:25:20.230Z,33.43
2023-06-15T10:27:48.497Z,32.56
2023-06-15T10:30:18.700Z,33.19
2023-06-15T10:32:47.681Z,32.84
2023-06-15T10:35:18.297Z,32.54
2023-06-15T10:37:48.225Z,33.75
2023-06-15T10:40:19.229Z,34.39
2023-06-15T10:42:47.263Z,33.64
2023-06-15T10:45:30.822Z,34.05
2023-06-15T10:47:58.809Z,35.26
2023-06-15T10:50:26.641Z,33.80
2023-06-15T10:52:54.367Z,34.26
2023-06-15T10:55:24.885Z,34.53
2023-06-15T10:58:11.356Z,35.30
2023-06-15T11:00:42.674Z,35.11
2023-06-15T11:03:24.452Z,35.60
2023-06-15T11:06:02.198Z,36.13
2023-06-15T11:08:31.874Z,36.28
2023-06-15T11:11:01.144Z,33.81
2023-06-15T11:13:28.917Z,35.09
2023-06-15T11:16:09.332Z,35.40
2023-06-15T11:18:37.728Z,34.18
2023-06-15T11:21:05.529Z,34.88
2023-06-15T11:23:34.629Z,35.45
2023-06-15T11:26:04.198Z,35.46
2023-06-15T11:28:38.795Z,34.92
2023-06-15T11:31:08.288Z,35.69
2023-06-15T11:33:37.491Z,35.60
2023-06-15T11:36:05.622Z,35.43
2023-06-15T11:38:33.358Z,36.24
2023-06-15T11:41:01.526Z,35.13
2023-06-15T11:43:34.122Z,35.16
2023-06-15T11:46:02.085Z,35.54
2023-06-15T11:48:31.639Z,35.91
2023-06-15T11:50:59.432Z,34.71
2023-06-15T11:53:27.229Z,35.83
2023-06-15T11:55:56.457Z,35.10
2023-06-15T11:58:24.276Z,34.79
2023-06-15T12:00:53.401Z,36.05
2023-06-15T12:03:21.180Z,36.51
2023-06-15T12:05:56.860Z,36.67
2023-06-15T12:08:24.558Z,36.15
2023-06-15T12:10:52.360Z,37.17
2023-06-15T12:13:20.016Z,36.92
2023-06-15T12:15:47.995Z,37.99
2023-06-15T12:18:17.746Z,34.50
2023-06-15T12:20:45.764Z,34.62
2023-06-15T12:23:13.455Z,34.32
2023-06-15T12:25:42.171Z,35.12
2023-06-15T12:28:16.437Z,36.39
2023-06-15T12:30:44.940Z,35.58
2023-06-15T12:33:27.057Z,36.59
2023-06-15T12:35:56.091Z,35.03
2023-06-15T12:38:24.797Z,35.17
2023-06-15T12:40:53.556Z,37.05
2023-06-15T12:43:21.579Z,41.60
2023-06-15T12:45:49.595Z,42.46
2023-06-15T12:48:17.279Z,44.93
2023-06-15T12:50:46.640Z,47.24
2023-06-15T12:53:14.351Z,47.95
2023-06-15T12:55:42.138Z,47.29
2023-06-15T12:58:10.200Z,45.63
2023-06-15T13:00:37.974Z,43.13
2023-06-15T13:03:07.339Z,41.77
2023-06-15T13:05:35.993Z,39.83
2023-06-15T13:08:05.253Z,38.12
2023-06-15T13:10:33.764Z,33.09
2023-06-15T13:13:01.627Z,34.70
2023-06-15T13:15:29.657Z,35.80
2023-06-15T13:17:57.689Z,35.84
2023-06-15T13:20:25.749Z,36.02
2023-06-15T13:22:53.606Z,35.34
2023-06-15T13:25:22.742Z,34.79
2023-06-15T13:27:50.644Z,34.92
2023-06-15T13:30:18.808Z,36.10
2023-06-15T13:32:47.904Z,37.13
2023-06-15T13:35:17.319Z,35.68
2023-06-15T13:37:45.981Z,34.41
2023-06-15T13:40:13.697Z,33.16
2023-06-15T13:42:42.859Z,32.83
2023-06-15T13:45:11.362Z,32.53
2023-06-15T13:47:39.692Z,32.62
2023-06-15T13:50:08.080Z,35.28
2023-06-15T13:52:35.870Z,36.08
2023-06-15T13:55:07.020Z,35.62
2023-06-15T13:57:35.790Z,36.94
2023-06-15T14:00:05.253Z,39.00
2023-06-15T14:02:41.905Z,40.97
2023-06-15T14:05:10.475Z,43.61
2023-06-15T14:07:39.794Z,44.15
2023-06-15T14:10:08.161Z,46.46
2023-06-15T14:12:36.405Z,48.30
2023-06-15T14:15:07.450Z,48.88
2023-06-15T14:17:35.446Z,49.47
2023-06-15T14:20:03.961Z,50.32
2023-06-15T14:22:31.872Z,45.87
2023-06-15T14:24:59.670Z,46.04
2023-06-15T14:27:27.416Z,48.58
2023-06-15T14:29:55.181Z,47.57
2023-06-15T14:32:24.224Z,48.56
2023-06-15T14:34:51.934Z,50.33
2023-06-15T14:37:21.782Z,48.13
2023-06-15T14:39:49.758Z,40.44
2023-06-15T14:42:20.770Z,39.18
2023-06-15T14:44:48.584Z,37.31
2023-06-15T14:47:16.278Z,33.81
2023-06-15T14:49:45.397Z,35.69
2023-06-15T14:52:13.445Z,33.70
2023-06-15T14:54:42.492Z,31.50
2023-06-15T14:57:12.285Z,31.42
2023-06-15T14:59:40.052Z,30.68
2023-06-15T15:02:07.701Z,32.35
2023-06-15T15:04:35.473Z,31.95
2023-06-15T15:07:04.736Z,31.81
2023-06-15T15:09:32.408Z,31.76
2023-06-15T15:12:00.206Z,31.69
2023-06-15T15:14:27.926Z,31.74
2023-06-15T15:16:55.691Z,32.31
2023-06-15T15:19:23.343Z,34.20
2023-06-15T15:21:51.143Z,32.98
2023-06-15T15:24:20.207Z,34.00
2023-06-15T15:26:47.937Z,35.17
2023-06-15T15:29:15.628Z,35.67
2023-06-15T15:31:43.281Z,35.05
2023-06-15T15:34:10.956Z,35.17
2023-06-15T15:36:38.614Z,35.97
2023-06-15T15:39:06.290Z,37.42
2023-06-15T15:41:35.599Z,38.12
2023-06-15T15:44:03.316Z,38.05
2023-06-15T15:46:31.013Z,38.54
2023-06-15T15:48:58.827Z,39.23
2023-06-15T15:51:26.559Z,38.33
2023-06-15T15:53:54.257Z,37.61
2023-06-15T15:56:21.944Z,38.12
2023-06-15T15:58:51.180Z,37.54
2023-06-15T16:01:18.975Z,37.16
2023-06-15T16:03:46.857Z,36.54
2023-06-15T16:06:14.629Z,36.11
2023-06-15T16:08:42.310Z,35.67
2023-06-15T16:11:09.976Z,36.45
2023-06-15T16:13:37.844Z,36.18
2023-06-15T16:16:27.150Z,37.17
2023-06-15T16:18:54.745Z,36.68
2023-06-15T16:21:23.168Z,36.17
2023-06-15T16:23:50.874Z,36.69
2023-06-15T16:26:18.592Z,36.01
2023-06-15T16:28:47.897Z,36.02
2023-06-15T16:31:16.965Z,35.13
2023-06-15T16:33:44.761Z,35.08
2023-06-15T16:36:12.489Z,34.93
2023-06-15T16:38:40.136Z,35.74
2023-06-15T16:41:07.774Z,35.87
2023-06-15T16:43:35.751Z,36.31
2023-06-15T16:46:03.497Z,34.94
2023-06-15T16:48:32.597Z,34.46
2023-06-15T16:51:00.514Z,35.16
2023-06-15T16:53:28.137Z,34.46
2023-06-15T16:55:55.942Z,35.11
2023-06-15T16:58:23.555Z,35.21
2023-06-15T17:00:51.254Z,35.08
2023-06-15T17:03:19.043Z,33.83
2023-06-15T17:05:48.402Z,34.23
2023-06-15T17:08:18.205Z,34.37
2023-06-15T17:10:45.949Z,34.17
2023-06-15T17:13:13.634Z,35.00
2023-06-15T17:15:42.414Z,34.28
2023-06-15T17:18:10.521Z,34.96
2023-06-15T17:20:38.343Z,35.57
2023-06-15T17:23:08.740Z,34.55
2023-06-15T17:25:36.528Z,36.81
2023-06-15T17:28:04.229Z,37.81
2023-06-15T17:30:31.970Z,39.50
2023-06-15T17:32:59.707Z,38.14
2023-06-15T17:35:27.446Z,38.07
2023-06-15T17:37:55.118Z,38.68
2023-06-15T17:40:24.602Z,38.20
2023-06-15T17:42:54.522Z,37.39
2023-06-15T17:45:22.236Z,36.12
2023-06-15T17:47:49.950Z,35.31
2023-06-15T17:50:18.169Z,35.07
2023-06-15T17:52:45.952Z,34.88
2023-06-15T17:55:13.655Z,33.80
2023-06-15T17:57:42.705Z,34.33
2023-06-15T18:00:10.878Z,33.74
2023-06-15T18:02:41.980Z,34.03
2023-06-15T18:05:09.953Z,34.23
2023-06-15T18:07:39.909Z,34.91
2023-06-15T18:10:08.329Z,34.90
2023-06-15T18:12:35.997Z,35.20
2023-06-15T18:15:05.280Z,34.07
2023-06-15T18:17:33.034Z,33.92
2023-06-15T18:20:00.766Z,33.18
2023-06-15T18:22:28.634Z,32.75
2023-06-15T18:24:56.342Z,33.32
2023-06-15T18:27:24.015Z,34.88
2023-06-15T18:29:52.509Z,34.02
2023-06-15T18:32:21.659Z,33.58
2023-06-15T18:34:49.337Z,32.51
2023-06-15T18:37:17.417Z,32.36
2023-06-15T18:39:45.143Z,31.26
2023-06-15T18:42:12.938Z,32.58
2023-06-15T18:44:42.652Z,32.10
2023-06-15T18:47:16.014Z,31.65
2023-06-15T18:49:45.499Z,31.69
2023-06-15T18:52:13.196Z,31.33
2023-06-15T18:54:40.988Z,31.37
2023-06-15T18:57:09.088Z,31.87
2023-06-15T18:59:36.745Z,31.89
2023-06-15T19:02:06.591Z,31.98
2023-06-15T19:04:34.509Z,31.42
2023-06-15T19:07:03.596Z,30.72
2023-06-15T19:09:31.498Z,31.23
2023-06-15T19:11:59.224Z,30.84
2023-06-15T19:14:29.046Z,31.53
2023-06-15T19:16:56.720Z,30.77
2023-06-15T19:19:24.397Z,30.68
2023-06-15T19:21:52.763Z,30.09
2023-06-15T19:24:23.069Z,29.69
2023-06-15T19:26:50.713Z,30.20
2023-06-15T19:29:18.505Z,29.82
2023-06-15T19:31:46.199Z,30.48
2023-06-15T19:34:14.583Z,31.17
2023-06-15T19:36:42.307Z,31.33
2023-06-15T19:39:09.987Z,31.65
2023-06-15T19:41:39.004Z,30.80
2023-06-15T19:44:07.147Z,30.50
2023-06-15T19:46:34.865Z,30.31
2023-06-15T19:49:02.676Z,30.05
2023-06-15T19:51:30.374Z,30.13
2023-06-15T19:53:58.060Z,30.11
2023-06-15T19:56:26.084Z,29.77
2023-06-15T19:58:55.244Z,30.51
2023-06-15T20:01:23.166Z,30.81
2023-06-15T20:03:51.114Z,30.62
2023-06-15T20:06:18.912Z,30.16
2023-06-15T20:08:46.570Z,30.64
2023-06-15T20:11:14.225Z,30.58
2023-06-15T20:13:42.010Z,30.62
2023-06-15T20:16:13.786Z,30.50
2023-06-15T20:18:42.590Z,30.59
2023-06-15T20:21:10.336Z,30.39
2023-06-15T20:23:38.009Z,29.58
2023-06-15T20:26:05.634Z,30.08
2023-06-15T20:28:34.341Z,30.17
2023-06-15T20:31:03.126Z,29.70
2023-06-15T20:33:32.376Z,30.52
2023-06-15T20:36:00.196Z,30.52
2023-06-15T20:38:31.445Z,30.04
2023-06-15T20:40:59.618Z,30.32
2023-06-15T20:43:28.505Z,30.32
2023-06-15T20:45:56.892Z,29.71
2023-06-15T20:48:24.572Z,29.62
2023-06-15T20:50:55.877Z,30.26
2023-06-15T20:53:23.903Z,29.91
2023-06-15T20:55:51.558Z,30.61
2023-06-15T20:58:19.618Z,30.33
2023-06-15T21:00:47.359Z,30.65
2023-06-15T21:03:15.091Z,29.56
2023-06-15T21:05:42.845Z,29.85
2023-06-15T21:08:11.949Z,29.94
2023-06-15T21:10:40.846Z,29.26
2023-06-15T21:13:08.640Z,29.56
2023-06-15T21:15:37.621Z,28.52
2023-06-15T21:18:05.560Z,28.99
2023-06-15T21:20:33.236Z,29.46
2023-06-15T21:23:00.994Z,29.92
2023-06-15T21:25:30.035Z,29.85
2023-06-15T21:27:57.713Z,29.52
2023-06-15T21:30:25.647Z,28.98
2023-06-15T21:32:53.373Z,28.94
2023-06-15T21:35:24.167Z,29.06
2023-06-15T21:37:51.847Z,28.94
2023-06-15T21:40:19.680Z,28.28
2023-06-15T21:42:49.638Z,28.69
2023-06-15T21:45:17.523Z,28.61
2023-06-15T21:47:47.097Z,28.08
2023-06-15T21:50:15.603Z,28.20
2023-06-15T21:52:47.405Z,28.29
2023-06-15T21:55:15.854Z,28.33
2023-06-15T21:57:44.511Z,28.18
2023-06-15T22:00:14.836Z,28.46
2023-06-15T22:02:42.620Z,27.73
2023-06-15T22:05:10.562Z,27.41
2023-06-15T22:07:38.296Z,28.43
2023-06-15T22:10:06.519Z,27.75
2023-06-15T22:12:34.937Z,28.23
2023-06-15T22:15:02.742Z,28.68
2023-06-15T22:17:31.798Z,27.69
2023-06-15T22:20:00.302Z,28.79
2023-06-15T22:22:28.148Z,28.27
2023-06-15T22:24:55.859Z,27.40
2023-06-15T22:27:25.312Z,27.72
2023-06-15T22:29:53.025Z,27.89
2023-06-15T22:32:20.758Z,28.07
2023-06-15T22:34:50.103Z,28.01
2023-06-15T22:37:18.045Z,27.70
2023-06-15T22:39:45.761Z,27.74
2023-06-15T22:42:13.513Z,27.58
2023-06-15T22:44:41.200Z,27.67
2023-06-15T22:47:08.981Z,28.63
2023-06-15T22:49:40.283Z,28.97
2023-06-15T22:52:12.050Z,29.42
2023-06-15T22:54:39.958Z,29.22
2023-06-15T22:57:07.908Z,29.20
2023-06-15T22:59:35.604Z,28.86
2023-06-15T23:02:03.290Z,28.87
2023-06-15T23:04:31.200Z,28.83
2023-06-15T23:06:58.885Z,28.65
2023-06-15T23:09:27.873Z,27.50
2023-06-15T23:11:55.546Z,27.60
2023-06-15T23:14:28.272Z,27.27
2023-06-15T23:16:58.172Z,28.52
2023-06-15T23:19:26.092Z,28.24
2023-06-15T23:21:54.552Z,27.84
2023-06-15T23:24:22.261Z,27.52
2023-06-15T23:26:51.301Z,27.54
2023-06-15T23:29:19.070Z,27.38
2023-06-15T23:31:46.713Z,28.23
2023-06-15T23:34:14.363Z,28.45
2023-06-15T23:36:42.029Z,29.21
2023-06-15T23:39:09.764Z,29.35
2023-06-15T23:41:37.433Z,29.23
2023-06-15T23:44:06.607Z,29.02
2023-06-15T23:46:34.286Z,29.01
2023-06-15T23:49:02.034Z,28.95
2023-06-15T23:51:29.716Z,29.08
2023-06-15T23:53:57.359Z,28.91
2023-06-15T23:56:25.060Z,29.02
2023-06-15T23:58:52.787Z,29.37
